Descalvado, Brazil
Current Conditions -  °F | °C
As of 11:00 PM on Friday 24 Oct 2014 (Local Time) from SBYS Reporting Station
Thunderstorm Thunderstorm  
Wind Chill: 73°   Ceiling: 9000
Heat Index: 73°   Visibility: 6mi
Dew Point: 59°   Wind: 7mph
Humidity: 61%   Direction: 130°SE
Pressure: NA   Gusts: NA
Location:  21.9°S, 47.62°W
Report Text: SBYS 250100Z 13006KT 9999 VCTS FEW040 FEW045CB OVC090 23/15 Q1016
Loading
Personal Weather Stations






























Interactive Weather Map
Tropical Storm Tracking
New forecast layout! Learn more

10-Day Weather Forecast

Advertisements
Track Severe Weather on mobile